Aitkin, Minnesota
Current Conditions -  °F | °C
As of 12:33 AM on Monday 24 Nov 2014 (Local Time) from KAIT Reporting Station
Overcast Overcast  
Wind Chill: 27°   Ceiling: 800
Heat Index: 34°   Visibility: 7mi
Dew Point: 28°   Wind: 8mph
Humidity: 81%   Direction: 310°NW
Pressure: 29.33"   Gusts: NA
Location:  46.53°N, 93.71°W
Report Text: KAIT 240633Z AUTO 31007KT 280V340 7SM OVC008 01/M02 A2933 RMK AO2
Loading
Personal Weather Stations






























Interactive Weather Map New forecast layout! Learn more

10-Day Weather Forecast

Advertisements
Track Severe Weather on mobile